Portada
METAR-TAF:

METAR-TAF

Aeropuertos :

Aeropuerto de Córdoba

Córdoba, España

latitud: 37-51N, longitud: 004-51W, altitud: 90 m

Observación

El informe se hizo hace 27 minutos, a las 08:00 UTC
Viento 3 kt del este, variando entre este-noreste y sur-sureste
Temperatura 23°C
Humedad 44%
Presión 1014 hPa
Visibilidad 10 km o más
sin nubes por debajo de 1500 m y sin presencia de cumulonimbus.

METAR: LEBA 270800Z 10003KT 060V160 CAVOK 23/10 Q1014

Hora: 10:27 (08:27 UTC)

Pronóstico

El informe se hizo hace 3 horas y 27 minutos, a las 05:00 UTC
Pronóstico válido del 27 a las 06 UTC al 27 a las 15 UTC
Viento 4 kt del oeste-suroeste
Visibilidad 10 km o más
sin nubes por debajo de 1500 m y sin presencia de cumulonimbus.

TAF: LEBA 270500Z 2706/2715 25004KT CAVOK

Observaciones y pronósticos meteorológicos de más de 4000 aeropuertos (mensajes METAR y TAF).

Los puntos amarillos y rojos representan las estaciones disponibles.

Ponga el ratón en el punto deseado para ver el nombre de la estación.

Haga clic para ver las observaciones y los pronósticos meteorológicos.

Para cambiar el mapa : haga clic en los botones verdes con una cruz de color negro para hacer un zoom, en el botón verde con un guión para alejar o en las flechas verdes para mapas adyacentes.


METAR-TAF: